createdAt,value
2023-05-02T00:01:08.316Z,6.28
2023-05-02T00:03:38.932Z,6.03
2023-05-02T00:06:09.098Z,6.15
2023-05-02T00:08:39.388Z,5.18
2023-05-02T00:11:09.883Z,5.70
2023-05-02T00:13:40.400Z,4.85
2023-05-02T00:16:10.862Z,4.90
2023-05-02T00:18:41.354Z,5.00
2023-05-02T00:21:11.369Z,5.07
2023-05-02T00:23:42.526Z,4.57
2023-05-02T00:26:12.713Z,5.70
2023-05-02T00:28:47.867Z,5.13
2023-05-02T00:31:19.373Z,5.13
2023-05-02T00:33:51.283Z,4.30
2023-05-02T00:36:22.408Z,3.40
2023-05-02T00:38:53.661Z,4.40
2023-05-02T00:41:23.850Z,4.40
2023-05-02T00:43:54.186Z,4.43
2023-05-02T00:46:25.223Z,5.43
2023-05-02T00:48:57.936Z,4.85
2023-05-02T00:51:29.350Z,4.20
2023-05-02T00:54:00.937Z,4.88
2023-05-02T00:56:30.889Z,6.13
2023-05-02T00:59:02.440Z,4.35
2023-05-02T01:01:52.496Z,4.00
2023-05-02T01:04:35.907Z,3.58
2023-05-02T01:07:18.840Z,3.72
2023-05-02T01:10:05.023Z,3.47
2023-05-02T01:12:44.115Z,3.22
2023-05-02T01:15:18.907Z,2.97
2023-05-02T01:17:50.766Z,3.20
2023-05-02T01:20:23.448Z,2.90
2023-05-02T01:22:54.114Z,3.00
2023-05-02T01:25:29.388Z,3.70
2023-05-02T01:28:00.492Z,2.83
2023-05-02T01:30:33.601Z,3.15
2023-05-02T01:33:04.967Z,3.30
2023-05-02T01:35:37.547Z,5.15
2023-05-02T01:38:08.909Z,3.78
2023-05-02T01:40:40.823Z,3.97
2023-05-02T01:43:14.442Z,3.40
2023-05-02T01:45:47.938Z,3.05
2023-05-02T01:48:21.151Z,2.45
2023-05-02T01:50:52.977Z,3.80
2023-05-02T01:53:24.966Z,2.50
2023-05-02T01:55:57.128Z,2.67
2023-05-02T01:58:29.987Z,2.70
2023-05-02T02:01:03.080Z,3.10
2023-05-02T02:03:34.514Z,3.10
2023-05-02T02:06:05.536Z,2.60
2023-05-02T02:08:36.141Z,3.95
2023-05-02T02:11:11.288Z,3.33
2023-05-02T02:13:46.013Z,2.90
2023-05-02T02:16:21.463Z,3.58
2023-05-02T02:18:52.368Z,3.60
2023-05-02T02:21:24.887Z,3.85
2023-05-02T02:23:57.322Z,3.25
2023-05-02T02:26:27.512Z,3.13
2023-05-02T02:28:58.230Z,2.03
2023-05-02T02:31:36.644Z,2.10
2023-05-02T02:34:08.025Z,2.67
2023-05-02T02:36:41.142Z,3.30
2023-05-02T02:39:19.487Z,2.08
2023-05-02T02:42:12.516Z,3.00
2023-05-02T02:44:56.148Z,5.50
2023-05-02T02:47:33.855Z,3.13
2023-05-02T02:50:17.081Z,3.20
2023-05-02T02:52:59.807Z,3.00
2023-05-02T02:55:45.282Z,3.30
2023-05-02T02:58:31.340Z,3.47
2023-05-02T03:01:04.926Z,6.30
2023-05-02T03:03:35.822Z,3.42
2023-05-02T03:06:06.721Z,2.97
2023-05-02T03:08:42.149Z,2.33
2023-05-02T03:11:17.557Z,2.80
2023-05-02T03:13:48.536Z,3.50
2023-05-02T03:16:38.500Z,3.03
2023-05-02T03:19:13.516Z,4.18
2023-05-02T03:21:44.352Z,4.43
2023-05-02T03:24:23.274Z,4.78
2023-05-02T03:27:00.253Z,3.88
2023-05-02T03:29:36.569Z,3.05
2023-05-02T03:32:07.254Z,3.53
2023-05-02T03:34:39.997Z,2.22
2023-05-02T03:37:12.501Z,2.80
2023-05-02T03:39:42.447Z,3.53
2023-05-02T03:42:12.942Z,3.15
2023-05-02T03:44:43.253Z,3.45
2023-05-02T03:47:14.654Z,2.95
2023-05-02T03:49:47.051Z,10.68
2023-05-02T03:52:18.522Z,4.05
2023-05-02T03:54:51.895Z,2.20
2023-05-02T03:57:22.445Z,3.40
2023-05-02T03:59:53.536Z,2.53
2023-05-02T04:02:31.163Z,2.50
2023-05-02T04:05:20.120Z,2.60
2023-05-02T04:07:52.897Z,2.63
2023-05-02T04:10:23.640Z,12.32
2023-05-02T04:12:57.550Z,2.58
2023-05-02T04:15:29.238Z,2.10
2023-05-02T04:18:00.399Z,3.00
2023-05-02T04:20:30.989Z,2.42
2023-05-02T04:23:01.550Z,2.08
2023-05-02T04:25:32.875Z,2.35
2023-05-02T04:28:07.419Z,1.90
2023-05-02T04:30:38.211Z,2.97
2023-05-02T04:33:12.904Z,2.50
2023-05-02T04:35:43.714Z,2.10
2023-05-02T04:38:16.208Z,2.75
2023-05-02T04:40:48.277Z,2.13
2023-05-02T04:43:25.075Z,1.90
2023-05-02T04:46:00.126Z,1.75
2023-05-02T04:48:35.184Z,1.70
2023-05-02T04:51:05.493Z,2.17
2023-05-02T04:53:35.885Z,1.70
2023-05-02T04:56:06.602Z,1.63
2023-05-02T04:58:39.216Z,1.90
2023-05-02T05:01:13.062Z,2.08
2023-05-02T05:03:44.051Z,1.73
2023-05-02T05:06:18.104Z,2.45
2023-05-02T05:08:48.248Z,3.50
2023-05-02T05:11:19.300Z,2.53
2023-05-02T05:13:52.236Z,1.80
2023-05-02T05:16:23.013Z,1.98
2023-05-02T05:18:54.987Z,2.65
2023-05-02T05:21:25.792Z,2.72
2023-05-02T05:23:56.535Z,2.97
2023-05-02T05:26:30.201Z,2.63
2023-05-02T05:29:01.329Z,2.45
2023-05-02T05:31:37.757Z,2.00
2023-05-02T05:34:09.259Z,2.63
2023-05-02T05:36:41.644Z,2.50
2023-05-02T05:39:13.020Z,3.50
2023-05-02T05:41:45.814Z,2.40
2023-05-02T05:44:16.058Z,1.73
2023-05-02T05:46:47.729Z,1.92
2023-05-02T05:49:19.105Z,2.72
2023-05-02T05:51:51.012Z,3.95
2023-05-02T05:54:21.924Z,2.53
2023-05-02T05:56:54.148Z,2.72
2023-05-02T05:59:25.219Z,2.70
2023-05-02T06:01:55.821Z,2.50
2023-05-02T06:04:26.859Z,2.33
2023-05-02T06:06:57.322Z,2.90
2023-05-02T06:09:27.203Z,3.38
2023-05-02T06:11:57.326Z,2.95
2023-05-02T06:14:30.761Z,2.60
2023-05-02T06:17:01.767Z,3.53
2023-05-02T06:19:32.173Z,2.70
2023-05-02T06:22:02.764Z,2.35
2023-05-02T06:24:35.570Z,2.67
2023-05-02T06:27:05.953Z,1.95
2023-05-02T06:29:38.227Z,2.75
2023-05-02T06:32:09.316Z,3.05
2023-05-02T06:34:40.486Z,2.85
2023-05-02T06:37:11.958Z,3.63
2023-05-02T06:39:42.045Z,3.35
2023-05-02T06:42:12.945Z,4.20
2023-05-02T06:44:43.004Z,3.53
2023-05-02T06:47:15.011Z,4.00
2023-05-02T06:49:45.709Z,2.83
2023-05-02T06:52:16.724Z,2.95
2023-05-02T06:54:47.189Z,2.17
2023-05-02T06:57:17.735Z,2.10
2023-05-02T06:59:48.655Z,2.67
2023-05-02T07:02:19.285Z,2.22
2023-05-02T07:04:50.073Z,2.72
2023-05-02T07:07:22.508Z,2.42
2023-05-02T07:09:56.016Z,2.13
2023-05-02T07:12:28.022Z,3.20
2023-05-02T07:14:58.670Z,2.47
2023-05-02T07:17:29.810Z,2.80
2023-05-02T07:20:01.018Z,2.10
2023-05-02T07:22:32.448Z,2.78
2023-05-02T07:25:03.738Z,2.40
2023-05-02T07:27:34.693Z,2.83
2023-05-02T07:30:05.186Z,2.67
2023-05-02T07:32:36.383Z,2.88
2023-05-02T07:35:06.876Z,3.30
2023-05-02T07:37:38.619Z,3.30
2023-05-02T07:40:10.282Z,3.03
2023-05-02T07:42:42.897Z,3.47
2023-05-02T07:45:12.612Z,2.90
2023-05-02T07:47:43.337Z,2.85
2023-05-02T07:50:13.806Z,2.55
2023-05-02T07:52:43.953Z,2.05
2023-05-02T07:55:13.794Z,3.33
2023-05-02T07:57:44.420Z,3.55
2023-05-02T08:00:15.437Z,3.60
2023-05-02T08:02:46.625Z,4.20
2023-05-02T08:05:16.768Z,4.13
2023-05-02T08:07:47.786Z,3.35
2023-05-02T08:10:18.417Z,3.50
2023-05-02T08:12:48.801Z,8.82
2023-05-02T08:15:19.365Z,3.08
2023-05-02T08:17:49.853Z,3.30
2023-05-02T08:20:20.874Z,4.40
2023-05-02T08:22:52.458Z,3.60
2023-05-02T08:25:24.261Z,3.00
2023-05-02T08:27:55.000Z,2.78
2023-05-02T08:30:25.858Z,3.75
2023-05-02T08:32:56.625Z,3.20
2023-05-02T08:35:26.856Z,2.85
2023-05-02T08:37:57.768Z,3.60
2023-05-02T08:40:40.952Z,3.05
2023-05-02T08:43:17.108Z,3.25
2023-05-02T08:45:47.466Z,3.42
2023-05-02T08:48:19.924Z,4.40
2023-05-02T08:50:51.104Z,3.65
2023-05-02T08:53:24.689Z,4.38
2023-05-02T08:55:54.846Z,3.95
2023-05-02T08:58:25.185Z,2.80
2023-05-02T09:01:00.351Z,3.72
2023-05-02T09:03:35.400Z,3.20
2023-05-02T09:06:17.326Z,3.50
2023-05-02T09:08:53.922Z,3.40
2023-05-02T09:11:24.925Z,3.30
2023-05-02T09:13:54.769Z,3.30
2023-05-02T09:16:26.782Z,3.20
2023-05-02T09:18:59.080Z,3.70
2023-05-02T09:21:43.051Z,6.55
2023-05-02T09:24:21.388Z,4.63
2023-05-02T09:27:03.934Z,5.20
2023-05-02T09:29:39.299Z,4.75
2023-05-02T09:32:10.630Z,6.40
2023-05-02T09:34:43.762Z,7.35
2023-05-02T09:37:33.916Z,5.35
2023-05-02T09:40:08.785Z,6.15
2023-05-02T09:42:39.856Z,11.10
2023-05-02T09:45:10.329Z,6.53
2023-05-02T09:47:42.667Z,9.30
2023-05-02T09:50:13.407Z,7.50
2023-05-02T09:53:02.442Z,8.35
2023-05-02T09:55:40.175Z,7.30
2023-05-02T09:58:21.063Z,6.40
2023-05-02T10:00:53.380Z,6.82
2023-05-02T10:03:25.565Z,7.40
2023-05-02T10:05:57.916Z,6.80
2023-05-02T10:08:29.575Z,6.95
2023-05-02T10:11:00.896Z,6.20
2023-05-02T10:13:35.446Z,6.38
2023-05-02T10:16:06.185Z,8.63
2023-05-02T10:19:03.099Z,6.95
2023-05-02T10:21:35.864Z,6.32
2023-05-02T10:24:07.275Z,6.85
2023-05-02T10:26:39.378Z,11.27
2023-05-02T10:29:10.240Z,6.68
2023-05-02T10:31:42.980Z,6.55
2023-05-02T10:34:15.280Z,7.30
2023-05-02T10:36:45.638Z,7.25
2023-05-02T10:39:15.958Z,6.43
2023-05-02T10:41:46.883Z,7.40
2023-05-02T10:44:16.990Z,7.50
2023-05-02T10:46:47.446Z,7.18
2023-05-02T10:49:18.886Z,7.18
2023-05-02T10:51:48.901Z,6.32
2023-05-02T10:54:19.940Z,9.88
2023-05-02T10:57:05.479Z,8.85
2023-05-02T10:59:42.770Z,8.63
2023-05-02T11:02:26.243Z,11.30
2023-05-02T11:05:03.262Z,9.90
2023-05-02T11:07:39.348Z,11.95
2023-05-02T11:10:12.846Z,10.55
2023-05-02T11:12:50.969Z,11.00
2023-05-02T11:15:30.324Z,9.95
2023-05-02T11:18:05.317Z,10.43
2023-05-02T11:20:36.511Z,8.45
2023-05-02T11:23:23.010Z,8.45
2023-05-02T11:25:55.571Z,9.85
2023-05-02T11:28:43.863Z,11.95
2023-05-02T11:31:29.809Z,10.20
2023-05-02T11:34:04.656Z,9.93
2023-05-02T11:36:36.022Z,9.57
2023-05-02T11:39:08.949Z,10.43
2023-05-02T11:41:43.141Z,10.05
2023-05-02T11:44:13.736Z,10.10
2023-05-02T11:46:44.814Z,9.35
2023-05-02T11:49:15.488Z,8.93
2023-05-02T11:51:46.737Z,8.40
2023-05-02T11:54:22.529Z,8.32
2023-05-02T11:56:53.170Z,7.70
2023-05-02T11:59:23.485Z,7.07
2023-05-02T12:02:15.033Z,7.47
2023-05-02T12:04:46.005Z,7.85
2023-05-02T12:07:16.445Z,7.90
2023-05-02T12:09:55.835Z,8.32
2023-05-02T12:12:27.064Z,6.65
2023-05-02T12:14:57.378Z,6.15
2023-05-02T12:17:30.604Z,5.68
2023-05-02T12:20:01.171Z,5.43
2023-05-02T12:22:31.554Z,5.65
2023-05-02T12:25:02.757Z,4.85
2023-05-02T12:27:37.174Z,5.38
2023-05-02T12:30:08.884Z,4.88
2023-05-02T12:32:39.814Z,5.43
2023-05-02T12:35:22.655Z,5.70
2023-05-02T12:37:55.514Z,5.10
2023-05-02T12:40:27.093Z,5.10
2023-05-02T12:43:05.186Z,4.75
2023-05-02T12:45:36.107Z,4.38
2023-05-02T12:48:24.808Z,4.97
2023-05-02T12:50:55.827Z,5.88
2023-05-02T12:53:46.736Z,5.30
2023-05-02T12:56:19.649Z,5.72
2023-05-02T12:58:49.598Z,5.32
2023-05-02T13:01:22.754Z,8.45
2023-05-02T13:03:52.917Z,5.80
2023-05-02T13:06:22.849Z,6.93
2023-05-02T13:08:52.793Z,13.10
2023-05-02T13:11:32.821Z,6.32
2023-05-02T13:14:06.605Z,5.70
2023-05-02T13:16:38.242Z,5.15
2023-05-02T13:19:09.297Z,5.25
2023-05-02T13:21:39.794Z,4.72
2023-05-02T13:24:10.365Z,4.75
2023-05-02T13:26:40.518Z,3.72
2023-05-02T13:29:13.851Z,4.05
2023-05-02T13:31:44.344Z,4.38
2023-05-02T13:34:17.975Z,4.20
2023-05-02T13:36:50.928Z,4.55
2023-05-02T13:39:21.401Z,3.80
2023-05-02T13:41:51.230Z,3.72
2023-05-02T13:44:20.854Z,3.95
2023-05-02T13:46:51.516Z,4.97
2023-05-02T13:49:21.410Z,3.83
2023-05-02T13:51:52.143Z,4.95
2023-05-02T13:54:22.912Z,4.57
2023-05-02T13:56:53.151Z,4.10
2023-05-02T13:59:23.337Z,4.57
2023-05-02T14:01:53.442Z,4.75
2023-05-02T14:04:23.712Z,4.22
2023-05-02T14:06:53.678Z,4.60
2023-05-02T14:09:24.485Z,4.18
2023-05-02T14:11:54.582Z,5.85
2023-05-02T14:14:24.586Z,3.78
2023-05-02T14:16:55.337Z,4.63
2023-05-02T14:19:25.720Z,4.38
2023-05-02T14:21:55.729Z,3.95
2023-05-02T14:24:25.775Z,4.00
2023-05-02T14:26:55.925Z,3.75
2023-05-02T14:29:25.548Z,4.72
2023-05-02T14:31:55.308Z,3.95
2023-05-02T14:34:27.859Z,3.33
2023-05-02T14:36:57.551Z,4.03
2023-05-02T14:39:28.588Z,4.00
2023-05-02T14:41:59.152Z,4.38
2023-05-02T14:44:29.452Z,4.00
2023-05-02T14:46:59.393Z,4.68
2023-05-02T14:49:29.490Z,4.88
2023-05-02T14:52:00.181Z,5.13
2023-05-02T14:54:35.723Z,4.22
2023-05-02T14:57:07.660Z,4.35
2023-05-02T14:59:39.846Z,5.78
2023-05-02T15:02:09.954Z,5.65
2023-05-02T15:04:40.024Z,4.68
2023-05-02T15:07:10.738Z,4.05
2023-05-02T15:09:41.052Z,4.38
2023-05-02T15:12:11.035Z,4.00
2023-05-02T15:14:41.602Z,3.85
2023-05-02T15:17:11.302Z,3.90
2023-05-02T15:19:41.541Z,3.83
2023-05-02T15:22:11.679Z,4.05
2023-05-02T15:24:42.310Z,4.47
2023-05-02T15:27:13.033Z,4.43
2023-05-02T15:29:42.976Z,4.90
2023-05-02T15:32:13.005Z,4.75
2023-05-02T15:34:43.072Z,4.43
2023-05-02T15:37:13.335Z,4.78
2023-05-02T15:39:43.265Z,4.70
2023-05-02T15:42:13.176Z,4.45
2023-05-02T15:44:42.784Z,4.55
2023-05-02T15:47:30.892Z,4.75
2023-05-02T15:50:16.138Z,4.38
2023-05-02T15:52:45.924Z,3.95
2023-05-02T15:55:15.520Z,4.38
2023-05-02T15:57:45.611Z,3.80
2023-05-02T16:00:17.710Z,4.18
2023-05-02T16:02:47.767Z,4.57
2023-05-02T16:05:18.072Z,4.50
2023-05-02T16:07:48.635Z,4.45
2023-05-02T16:10:18.300Z,4.47
2023-05-02T16:12:48.466Z,4.65
2023-05-02T16:15:18.178Z,4.60
2023-05-02T16:17:51.913Z,4.72
2023-05-02T16:20:21.978Z,8.90
2023-05-02T16:22:52.378Z,9.25
2023-05-02T16:25:22.424Z,9.40
2023-05-02T16:27:52.982Z,8.00
2023-05-02T16:30:23.009Z,7.53
2023-05-02T16:32:53.272Z,7.80
2023-05-02T16:35:26.048Z,6.75
2023-05-02T16:37:55.807Z,6.32
2023-05-02T16:40:27.380Z,7.20
2023-05-02T16:42:58.200Z,6.85
2023-05-02T16:45:28.241Z,6.35
2023-05-02T16:47:58.778Z,6.20
2023-05-02T16:50:29.165Z,6.60
2023-05-02T16:52:59.183Z,6.63
2023-05-02T16:55:28.811Z,6.72
2023-05-02T16:57:58.836Z,6.22
2023-05-02T17:00:29.210Z,5.90
2023-05-02T17:03:01.082Z,5.07
2023-05-02T17:05:50.222Z,6.20
2023-05-02T17:08:21.771Z,6.53
2023-05-02T17:10:52.408Z,6.30
2023-05-02T17:13:22.099Z,6.57
2023-05-02T17:15:53.801Z,6.18
2023-05-02T17:18:24.780Z,5.65
2023-05-02T17:20:58.405Z,8.70
2023-05-02T17:23:31.471Z,10.55
2023-05-02T17:26:04.009Z,12.63
2023-05-02T17:28:34.244Z,14.48
2023-05-02T17:31:04.353Z,12.38
2023-05-02T17:33:34.662Z,12.52
2023-05-02T17:36:04.451Z,11.50
2023-05-02T17:38:34.334Z,10.77
2023-05-02T17:41:04.084Z,10.68
2023-05-02T17:43:33.704Z,10.30
2023-05-02T17:46:08.909Z,9.82
2023-05-02T17:48:38.999Z,9.75
2023-05-02T17:51:09.420Z,8.63
2023-05-02T17:53:39.514Z,8.65
2023-05-02T17:56:11.619Z,8.35
2023-05-02T17:58:41.745Z,7.47
2023-05-02T18:01:14.663Z,8.48
2023-05-02T18:03:44.560Z,6.93
2023-05-02T18:06:18.494Z,6.30
2023-05-02T18:08:53.226Z,6.05
2023-05-02T18:11:25.107Z,5.53
2023-05-02T18:13:54.764Z,5.53
2023-05-02T18:16:47.845Z,5.85
2023-05-02T18:19:18.349Z,6.20
2023-05-02T18:21:48.685Z,5.00
2023-05-02T18:24:20.787Z,5.20
2023-05-02T18:26:51.090Z,5.28
2023-05-02T18:29:20.725Z,5.03
2023-05-02T18:31:53.447Z,5.38
2023-05-02T18:34:24.640Z,5.63
2023-05-02T18:36:54.495Z,5.40
2023-05-02T18:39:24.647Z,6.88
2023-05-02T18:41:57.604Z,5.63
2023-05-02T18:44:27.902Z,5.95
2023-05-02T18:46:59.304Z,6.97
2023-05-02T18:49:29.228Z,5.55
2023-05-02T18:51:58.868Z,6.78
2023-05-02T18:54:29.766Z,6.20
2023-05-02T18:57:00.624Z,6.15
2023-05-02T18:59:31.169Z,6.03
2023-05-02T19:02:25.354Z,6.18
2023-05-02T19:05:13.093Z,7.00
2023-05-02T19:07:43.223Z,5.18
2023-05-02T19:10:14.153Z,7.03
2023-05-02T19:12:44.216Z,6.25
2023-05-02T19:15:24.750Z,5.80
2023-05-02T19:17:55.880Z,5.30
2023-05-02T19:20:25.670Z,4.95
2023-05-02T19:23:07.282Z,4.70
2023-05-02T19:25:45.134Z,5.47
2023-05-02T19:28:18.472Z,4.45
2023-05-02T19:30:48.239Z,4.50
2023-05-02T19:33:18.451Z,5.28
2023-05-02T19:35:48.896Z,4.22
2023-05-02T19:38:19.000Z,4.95
2023-05-02T19:40:49.199Z,4.93
2023-05-02T19:43:19.189Z,5.30
2023-05-02T19:45:48.850Z,4.78
2023-05-02T19:48:18.590Z,5.35
2023-05-02T19:50:48.515Z,4.80
2023-05-02T19:53:18.237Z,5.30
2023-05-02T19:55:48.879Z,4.97
2023-05-02T19:58:19.780Z,4.60
2023-05-02T20:01:07.695Z,4.72
2023-05-02T20:03:37.980Z,5.50
2023-05-02T20:06:08.111Z,5.80
2023-05-02T20:08:38.147Z,5.15
2023-05-02T20:11:10.450Z,5.38
2023-05-02T20:13:40.444Z,5.47
2023-05-02T20:16:11.276Z,5.70
2023-05-02T20:18:41.414Z,6.13
2023-05-02T20:21:11.069Z,5.95
2023-05-02T20:23:44.155Z,5.80
2023-05-02T20:26:16.660Z,6.45
2023-05-02T20:28:46.471Z,6.13
2023-05-02T20:31:16.514Z,6.35
2023-05-02T20:33:48.136Z,5.07
2023-05-02T20:36:19.038Z,6.05
2023-05-02T20:38:49.415Z,5.20
2023-05-02T20:41:19.643Z,4.80
2023-05-02T20:43:50.695Z,5.03
2023-05-02T20:46:21.082Z,4.63
2023-05-02T20:48:51.898Z,5.05
2023-05-02T20:51:22.658Z,5.05
2023-05-02T20:53:52.988Z,5.45
2023-05-02T20:56:22.914Z,5.15
2023-05-02T20:58:53.742Z,5.70
2023-05-02T21:01:25.723Z,4.93
2023-05-02T21:03:57.869Z,5.90
2023-05-02T21:06:28.283Z,5.75
2023-05-02T21:09:02.689Z,5.32
2023-05-02T21:11:33.072Z,5.68
2023-05-02T21:14:02.706Z,6.78
2023-05-02T21:16:33.159Z,5.78
2023-05-02T21:19:02.974Z,5.75
2023-05-02T21:21:33.297Z,6.53
2023-05-02T21:24:04.975Z,6.47
2023-05-02T21:26:34.637Z,6.72
2023-05-02T21:29:29.002Z,5.60
2023-05-02T21:32:00.887Z,10.85
2023-05-02T21:34:30.592Z,5.93
2023-05-02T21:37:00.999Z,5.65
2023-05-02T21:39:32.958Z,5.55
2023-05-02T21:42:03.233Z,7.82
2023-05-02T21:44:33.219Z,6.68
2023-05-02T21:47:04.597Z,7.38
2023-05-02T21:49:34.694Z,7.53
2023-05-02T21:52:04.505Z,5.93
2023-05-02T21:54:36.927Z,6.43
2023-05-02T21:57:07.012Z,6.15
2023-05-02T21:59:36.824Z,7.43
2023-05-02T22:02:07.834Z,8.10
2023-05-02T22:04:38.025Z,6.95
2023-05-02T22:07:08.477Z,7.22
2023-05-02T22:09:38.175Z,7.65
2023-05-02T22:12:08.604Z,8.45
2023-05-02T22:14:45.413Z,8.10
2023-05-02T22:17:19.441Z,7.72
2023-05-02T22:19:56.065Z,9.20
2023-05-02T22:22:25.984Z,10.65
2023-05-02T22:24:56.407Z,10.40
2023-05-02T22:27:26.763Z,10.63
2023-05-02T22:29:57.254Z,12.00
2023-05-02T22:32:27.815Z,10.95
2023-05-02T22:34:58.095Z,9.57
2023-05-02T22:37:28.234Z,10.88
2023-05-02T22:39:57.845Z,12.27
2023-05-02T22:42:28.633Z,11.65
2023-05-02T22:45:00.390Z,10.98
2023-05-02T22:47:30.529Z,10.93
2023-05-02T22:50:01.088Z,11.05
2023-05-02T22:52:31.940Z,11.75
2023-05-02T22:55:01.964Z,11.88
2023-05-02T22:57:32.518Z,12.98
2023-05-02T23:00:02.420Z,12.90
2023-05-02T23:02:33.940Z,12.05
2023-05-02T23:05:04.322Z,13.15
2023-05-02T23:07:35.023Z,13.15
2023-05-02T23:10:05.565Z,12.45
2023-05-02T23:12:35.794Z,13.25
2023-05-02T23:15:06.447Z,14.43
2023-05-02T23:18:13.302Z,13.13
2023-05-02T23:20:42.877Z,12.23
2023-05-02T23:23:12.746Z,13.82
2023-05-02T23:25:42.657Z,13.40
2023-05-02T23:28:13.124Z,13.48
2023-05-02T23:30:42.798Z,18.77
2023-05-02T23:33:13.236Z,14.38
2023-05-02T23:35:43.288Z,14.57
2023-05-02T23:38:13.299Z,13.00
2023-05-02T23:40:43.802Z,13.95
2023-05-02T23:43:14.874Z,12.25
2023-05-02T23:45:44.862Z,12.40
2023-05-02T23:48:15.182Z,13.48
2023-05-02T23:50:44.883Z,13.93
2023-05-02T23:53:15.455Z,12.32
2023-05-02T23:55:48.538Z,13.65
2023-05-02T23:58:18.715Z,12.50
